KROX/ROX METAR and TAF weather

Enter ICAO airport designator
Station Type Date Time Source
KROX METAR 2021/09/24 00:55 UTC NOAA

KROX 240055Z AUTO 22004KT 10SM CLR 18/09 A2985 RMK AO2


Station Type Date Time Source
KROX Decoded METAR 2021/09/24 00:55 UTC NOAA

Roseau, Roseau Municipal Airport/Rudy Billberg Field, MN, United States (KROX) 48-51N 095-42W
Sep 23, 2021 - 08:55 PM EDT / 2021.09.24 0055 UTC
Wind: from the SW (220 degrees) at 5 MPH (4 KT):0
Visibility: 10 mile(s):0
Sky conditions: clear
Temperature: 64 F (18 C)
Dew Point: 48 F (9 C)
Relative Humidity: 55%
Pressure (altimeter): 29.85 in. Hg (1010 hPa)
ob: KROX 240055Z AUTO 22004KT 10SM CLR 18/09 A2985 RMK AO2
cycle: 1

Station Type Date Time Source
KROX TAF UTC NOAA

Error!

Example: see airport list